createdAt,value
2018-06-16T10:12:10.472Z,98732.23
2018-06-16T10:14:40.812Z,98733.63
2018-06-16T10:17:12.621Z,98732.14
2018-06-16T10:19:42.559Z,98737.27
2018-06-16T10:22:15.005Z,98734.53
2018-06-16T10:24:45.859Z,98731.16
2018-06-16T10:27:16.463Z,98728.29
2018-06-16T10:29:46.952Z,98732.36
2018-06-16T10:32:18.001Z,98730.77
2018-06-16T10:34:49.444Z,98719.13
2018-06-16T10:37:20.642Z,98726.05
2018-06-16T10:39:50.779Z,98720.63
2018-06-16T10:42:21.588Z,98719.48
2018-06-16T10:44:51.735Z,98714.43
2018-06-16T10:47:21.728Z,98720.00
2018-06-16T10:49:54.535Z,98714.60
2018-06-16T10:52:26.741Z,98711.70
2018-06-16T10:54:57.850Z,98708.56
2018-06-16T10:57:28.036Z,98699.67
2018-06-16T10:59:58.147Z,98696.36
2018-06-16T11:02:31.823Z,98701.85
2018-06-16T11:05:06.224Z,98702.16
2018-06-16T11:07:36.638Z,98707.95
2018-06-16T11:10:06.555Z,98694.83
2018-06-16T11:12:36.637Z,98696.91
2018-06-16T11:15:09.967Z,98697.33
2018-06-16T11:17:40.458Z,98691.39
2018-06-16T11:20:10.500Z,98692.16
2018-06-16T11:22:41.267Z,98684.36
2018-06-16T11:25:12.349Z,98681.18
2018-06-16T11:27:42.378Z,98683.16
2018-06-16T11:30:14.373Z,98680.08
2018-06-16T11:32:44.289Z,98676.91
2018-06-16T11:35:14.173Z,98670.63
2018-06-16T11:37:44.146Z,98673.80
2018-06-16T11:40:18.543Z,98670.52
2018-06-16T11:42:48.625Z,98661.61
2018-06-16T11:45:18.716Z,98661.30
2018-06-16T11:47:49.535Z,98662.62
2018-06-16T11:50:20.758Z,98655.89
2018-06-16T11:52:51.404Z,98655.74
2018-06-16T11:55:23.426Z,98647.20
2018-06-16T11:57:56.582Z,98648.53
2018-06-16T12:00:27.537Z,98639.95
2018-06-16T12:02:57.923Z,98641.78
2018-06-16T12:05:27.740Z,98641.05
2018-06-16T12:07:59.673Z,98630.13
2018-06-16T12:10:29.685Z,98629.13
2018-06-16T12:13:00.188Z,98628.98
2018-06-16T12:15:31.651Z,98625.53
2018-06-16T12:18:02.274Z,98622.77
2018-06-16T12:20:32.927Z,98630.59
2018-06-16T12:23:03.023Z,98621.84
2018-06-16T12:25:34.160Z,98619.93
2018-06-16T12:28:06.121Z,98618.61
2018-06-16T12:30:38.008Z,98621.06
2018-06-16T12:33:08.347Z,98620.08
2018-06-16T12:35:40.786Z,98615.52
2018-06-16T12:38:11.289Z,98611.42
2018-06-16T12:40:42.145Z,98610.61
2018-06-16T12:43:12.474Z,98609.72
2018-06-16T12:45:53.335Z,98617.81
2018-06-16T12:48:23.437Z,98610.55
2018-06-16T12:50:56.739Z,98617.65
